sensor_id;sensor_type;location;lat;lon;timestamp;temperature;humidity
74153;DHT22;62505;46.070;14.492;2024-01-10T00:01:45;22.30;58.60
74153;DHT22;62505;46.070;14.492;2024-01-10T00:04:12;22.40;58.60
74153;DHT22;62505;46.070;14.492;2024-01-10T00:06:42;22.40;58.70
74153;DHT22;62505;46.070;14.492;2024-01-10T00:09:09;22.30;58.60
74153;DHT22;62505;46.070;14.492;2024-01-10T00:11:36;22.40;58.70
74153;DHT22;62505;46.070;14.492;2024-01-10T00:14:05;22.30;58.60
74153;DHT22;62505;46.070;14.492;2024-01-10T00:16:32;22.40;58.60
74153;DHT22;62505;46.070;14.492;2024-01-10T00:18:59;22.40;58.60
74153;DHT22;62505;46.070;14.492;2024-01-10T00:21:26;22.40;59.20
74153;DHT22;62505;46.070;14.492;2024-01-10T00:23:53;22.40;58.60
74153;DHT22;62505;46.070;14.492;2024-01-10T00:26:20;22.40;58.60
74153;DHT22;62505;46.070;14.492;2024-01-10T00:28:47;22.40;58.40
74153;DHT22;62505;46.070;14.492;2024-01-10T00:31:17;22.40;58.50
74153;DHT22;62505;46.070;14.492;2024-01-10T00:33:44;22.40;58.50
74153;DHT22;62505;46.070;14.492;2024-01-10T00:36:11;22.30;58.40
74153;DHT22;62505;46.070;14.492;2024-01-10T00:38:38;22.40;58.50
74153;DHT22;62505;46.070;14.492;2024-01-10T00:41:05;22.40;58.50
74153;DHT22;62505;46.070;14.492;2024-01-10T00:43:32;22.40;58.50
74153;DHT22;62505;46.070;14.492;2024-01-10T00:45:58;22.40;58.50
74153;DHT22;62505;46.070;14.492;2024-01-10T00:48:27;22.40;58.40
74153;DHT22;62505;46.070;14.492;2024-01-10T00:50:54;22.40;58.50
74153;DHT22;62505;46.070;14.492;2024-01-10T00:53:21;22.30;58.40
74153;DHT22;62505;46.070;14.492;2024-01-10T00:55:48;22.40;58.40
74153;DHT22;62505;46.070;14.492;2024-01-10T00:58:15;22.30;58.40
74153;DHT22;62505;46.070;14.492;2024-01-10T01:00:42;22.30;58.30
74153;DHT22;62505;46.070;14.492;2024-01-10T01:03:09;22.30;58.30
74153;DHT22;62505;46.070;14.492;2024-01-10T01:05:37;22.30;58.30
74153;DHT22;62505;46.070;14.492;2024-01-10T01:08:05;22.30;58.30
74153;DHT22;62505;46.070;14.492;2024-01-10T01:10:33;22.30;58.20
74153;DHT22;62505;46.070;14.492;2024-01-10T01:13:00;22.30;58.30
74153;DHT22;62505;46.070;14.492;2024-01-10T01:15:27;22.40;58.50
74153;DHT22;62505;46.070;14.492;2024-01-10T01:17:54;22.30;58.40
74153;DHT22;62505;46.070;14.492;2024-01-10T01:20:21;22.30;58.30
74153;DHT22;62505;46.070;14.492;2024-01-10T01:22:49;22.30;58.20
74153;DHT22;62505;46.070;14.492;2024-01-10T01:25:16;22.30;58.30
74153;DHT22;62505;46.070;14.492;2024-01-10T01:27:43;22.30;58.20
74153;DHT22;62505;46.070;14.492;2024-01-10T01:30:11;22.30;58.20
74153;DHT22;62505;46.070;14.492;2024-01-10T01:32:38;22.30;58.20
74153;DHT22;62505;46.070;14.492;2024-01-10T01:35:06;22.40;58.20
74153;DHT22;62505;46.070;14.492;2024-01-10T01:37:33;22.30;58.20
74153;DHT22;62505;46.070;14.492;2024-01-10T01:40:01;22.30;58.20
74153;DHT22;62505;46.070;14.492;2024-01-10T01:42:28;22.30;58.20
74153;DHT22;62505;46.070;14.492;2024-01-10T01:44:55;22.30;58.20
74153;DHT22;62505;46.070;14.492;2024-01-10T01:47:22;22.30;58.20
74153;DHT22;62505;46.070;14.492;2024-01-10T01:49:49;22.30;58.10
74153;DHT22;62505;46.070;14.492;2024-01-10T01:52:16;22.30;58.20
74153;DHT22;62505;46.070;14.492;2024-01-10T01:54:43;22.30;58.20
74153;DHT22;62505;46.070;14.492;2024-01-10T01:57:12;22.30;58.10
74153;DHT22;62505;46.070;14.492;2024-01-10T01:59:39;22.30;58.10
74153;DHT22;62505;46.070;14.492;2024-01-10T02:02:07;22.30;58.20
74153;DHT22;62505;46.070;14.492;2024-01-10T02:04:34;22.30;58.10
74153;DHT22;62505;46.070;14.492;2024-01-10T02:07:01;22.30;58.10
74153;DHT22;62505;46.070;14.492;2024-01-10T02:09:28;22.30;58.20
74153;DHT22;62505;46.070;14.492;2024-01-10T02:11:55;22.30;58.20
74153;DHT22;62505;46.070;14.492;2024-01-10T02:14:24;22.30;58.20
74153;DHT22;62505;46.070;14.492;2024-01-10T02:16:51;22.30;58.20
74153;DHT22;62505;46.070;14.492;2024-01-10T02:19:20;22.30;58.20
74153;DHT22;62505;46.070;14.492;2024-01-10T02:21:47;22.40;58.20
74153;DHT22;62505;46.070;14.492;2024-01-10T02:24:14;22.30;58.80
74153;DHT22;62505;46.070;14.492;2024-01-10T02:26:43;22.30;58.10
74153;DHT22;62505;46.070;14.492;2024-01-10T02:29:10;22.30;58.10
74153;DHT22;62505;46.070;14.492;2024-01-10T02:31:37;22.30;58.10
74153;DHT22;62505;46.070;14.492;2024-01-10T02:34:04;22.30;58.00
74153;DHT22;62505;46.070;14.492;2024-01-10T02:36:30;22.30;58.10
74153;DHT22;62505;46.070;14.492;2024-01-10T02:38:57;22.30;58.10
74153;DHT22;62505;46.070;14.492;2024-01-10T02:41:24;22.30;58.10
74153;DHT22;62505;46.070;14.492;2024-01-10T02:43:54;22.30;58.10
74153;DHT22;62505;46.070;14.492;2024-01-10T02:46:24;22.30;58.00
74153;DHT22;62505;46.070;14.492;2024-01-10T02:48:53;22.30;58.10
74153;DHT22;62505;46.070;14.492;2024-01-10T02:51:21;22.30;58.10
74153;DHT22;62505;46.070;14.492;2024-01-10T02:53:48;22.30;58.10
74153;DHT22;62505;46.070;14.492;2024-01-10T02:56:15;22.30;58.10
74153;DHT22;62505;46.070;14.492;2024-01-10T02:58:42;22.30;58.10
74153;DHT22;62505;46.070;14.492;2024-01-10T03:01:10;22.30;58.00
74153;DHT22;62505;46.070;14.492;2024-01-10T03:03:37;22.30;58.10
74153;DHT22;62505;46.070;14.492;2024-01-10T03:06:04;22.30;58.10
74153;DHT22;62505;46.070;14.492;2024-01-10T03:08:31;22.30;58.10
74153;DHT22;62505;46.070;14.492;2024-01-10T03:10:58;22.30;58.10
74153;DHT22;62505;46.070;14.492;2024-01-10T03:13:26;22.30;58.00
74153;DHT22;62505;46.070;14.492;2024-01-10T03:15:53;22.30;58.00
74153;DHT22;62505;46.070;14.492;2024-01-10T03:18:21;22.30;58.00
74153;DHT22;62505;46.070;14.492;2024-01-10T03:20:48;22.30;58.10
74153;DHT22;62505;46.070;14.492;2024-01-10T03:23:15;22.30;58.10
74153;DHT22;62505;46.070;14.492;2024-01-10T03:25:42;22.30;58.10
74153;DHT22;62505;46.070;14.492;2024-01-10T03:28:09;22.30;58.10
74153;DHT22;62505;46.070;14.492;2024-01-10T03:30:36;22.30;58.10
74153;DHT22;62505;46.070;14.492;2024-01-10T03:33:03;22.30;58.00
74153;DHT22;62505;46.070;14.492;2024-01-10T03:35:31;22.30;58.00
74153;DHT22;62505;46.070;14.492;2024-01-10T03:37:58;22.30;57.90
74153;DHT22;62505;46.070;14.492;2024-01-10T03:40:25;22.30;57.90
74153;DHT22;62505;46.070;14.492;2024-01-10T03:42:52;22.30;57.90
74153;DHT22;62505;46.070;14.492;2024-01-10T03:45:19;22.30;57.90
74153;DHT22;62505;46.070;14.492;2024-01-10T03:47:48;22.30;57.80
74153;DHT22;62505;46.070;14.492;2024-01-10T03:50:17;22.30;57.90
74153;DHT22;62505;46.070;14.492;2024-01-10T03:52:46;22.30;58.50
74153;DHT22;62505;46.070;14.492;2024-01-10T03:55:13;22.30;57.90
74153;DHT22;62505;46.070;14.492;2024-01-10T03:57:41;22.30;57.90
74153;DHT22;62505;46.070;14.492;2024-01-10T04:00:11;22.30;57.90
74153;DHT22;62505;46.070;14.492;2024-01-10T04:02:38;22.30;58.00
74153;DHT22;62505;46.070;14.492;2024-01-10T04:05:07;22.30;58.00
74153;DHT22;62505;46.070;14.492;2024-01-10T04:07:35;22.30;58.00
74153;DHT22;62505;46.070;14.492;2024-01-10T04:10:05;22.30;58.10
74153;DHT22;62505;46.070;14.492;2024-01-10T04:12:36;22.30;58.10
74153;DHT22;62505;46.070;14.492;2024-01-10T04:15:03;22.30;58.00
74153;DHT22;62505;46.070;14.492;2024-01-10T04:17:30;22.30;58.10
74153;DHT22;62505;46.070;14.492;2024-01-10T04:19:58;22.30;58.10
74153;DHT22;62505;46.070;14.492;2024-01-10T04:22:25;22.30;58.20
74153;DHT22;62505;46.070;14.492;2024-01-10T04:24:52;22.40;58.20
74153;DHT22;62505;46.070;14.492;2024-01-10T04:27:20;22.30;58.20
74153;DHT22;62505;46.070;14.492;2024-01-10T04:29:47;22.30;58.10
74153;DHT22;62505;46.070;14.492;2024-01-10T04:32:14;22.30;58.10
74153;DHT22;62505;46.070;14.492;2024-01-10T04:34:41;22.30;58.10
74153;DHT22;62505;46.070;14.492;2024-01-10T04:37:11;22.30;58.10
74153;DHT22;62505;46.070;14.492;2024-01-10T04:39:38;22.30;58.10
74153;DHT22;62505;46.070;14.492;2024-01-10T04:42:06;22.30;58.20
74153;DHT22;62505;46.070;14.492;2024-01-10T04:44:35;22.30;58.20
74153;DHT22;62505;46.070;14.492;2024-01-10T04:47:02;22.30;58.20
74153;DHT22;62505;46.070;14.492;2024-01-10T04:49:29;22.30;58.20
74153;DHT22;62505;46.070;14.492;2024-01-10T04:51:56;22.30;58.20
74153;DHT22;62505;46.070;14.492;2024-01-10T04:54:23;22.30;58.20
74153;DHT22;62505;46.070;14.492;2024-01-10T04:56:50;22.30;58.30
74153;DHT22;62505;46.070;14.492;2024-01-10T04:59:17;22.30;58.30
74153;DHT22;62505;46.070;14.492;2024-01-10T05:01:45;22.30;58.20
74153;DHT22;62505;46.070;14.492;2024-01-10T05:04:13;22.40;58.20
74153;DHT22;62505;46.070;14.492;2024-01-10T05:06:39;22.40;58.40
74153;DHT22;62505;46.070;14.492;2024-01-10T05:09:07;22.40;58.00
74153;DHT22;62505;46.070;14.492;2024-01-10T05:11:35;22.40;58.20
74153;DHT22;62505;46.070;14.492;2024-01-10T05:14:02;22.40;58.30
74153;DHT22;62505;46.070;14.492;2024-01-10T05:16:29;22.40;58.30
74153;DHT22;62505;46.070;14.492;2024-01-10T05:19:01;22.40;58.10
74153;DHT22;62505;46.070;14.492;2024-01-10T05:21:29;22.40;57.90
74153;DHT22;62505;46.070;14.492;2024-01-10T05:23:56;22.40;58.90
74153;DHT22;62505;46.070;14.492;2024-01-10T05:26:23;22.50;64.50
74153;DHT22;62505;46.070;14.492;2024-01-10T05:28:50;22.50;61.30
74153;DHT22;62505;46.070;14.492;2024-01-10T05:31:17;22.60;62.30
74153;DHT22;62505;46.070;14.492;2024-01-10T05:33:44;22.60;62.00
74153;DHT22;62505;46.070;14.492;2024-01-10T05:36:12;22.60;61.10
74153;DHT22;62505;46.070;14.492;2024-01-10T05:38:39;22.60;60.60
74153;DHT22;62505;46.070;14.492;2024-01-10T05:41:07;22.60;60.90
74153;DHT22;62505;46.070;14.492;2024-01-10T05:43:34;22.60;61.40
74153;DHT22;62505;46.070;14.492;2024-01-10T05:46:01;22.60;61.10
74153;DHT22;62505;46.070;14.492;2024-01-10T05:48:30;22.50;60.70
74153;DHT22;62505;46.070;14.492;2024-01-10T05:50:57;22.50;60.70
74153;DHT22;62505;46.070;14.492;2024-01-10T05:53:26;22.40;49.40
74153;DHT22;62505;46.070;14.492;2024-01-10T05:55:53;22.10;41.80
74153;DHT22;62505;46.070;14.492;2024-01-10T05:58:20;22.00;49.70
74153;DHT22;62505;46.070;14.492;2024-01-10T06:00:47;22.00;52.50
74153;DHT22;62505;46.070;14.492;2024-01-10T06:03:14;22.10;52.50
74153;DHT22;62505;46.070;14.492;2024-01-10T06:05:41;22.20;53.20
74153;DHT22;62505;46.070;14.492;2024-01-10T06:08:08;22.20;52.80
74153;DHT22;62505;46.070;14.492;2024-01-10T06:10:36;22.20;52.80
74153;DHT22;62505;46.070;14.492;2024-01-10T06:13:03;22.20;54.00
74153;DHT22;62505;46.070;14.492;2024-01-10T06:15:31;22.20;53.70
74153;DHT22;62505;46.070;14.492;2024-01-10T06:17:57;22.20;54.10
74153;DHT22;62505;46.070;14.492;2024-01-10T06:20:25;22.30;54.50
74153;DHT22;62505;46.070;14.492;2024-01-10T06:22:51;22.30;54.80
74153;DHT22;62505;46.070;14.492;2024-01-10T06:25:18;22.30;55.40
74153;DHT22;62505;46.070;14.492;2024-01-10T06:27:47;22.40;55.90
74153;DHT22;62505;46.070;14.492;2024-01-10T06:30:15;22.40;56.80
74153;DHT22;62505;46.070;14.492;2024-01-10T06:32:41;22.40;58.10
74153;DHT22;62505;46.070;14.492;2024-01-10T06:35:08;22.50;57.80
74153;DHT22;62505;46.070;14.492;2024-01-10T06:37:36;22.50;58.00
74153;DHT22;62505;46.070;14.492;2024-01-10T06:40:05;22.50;57.60
74153;DHT22;62505;46.070;14.492;2024-01-10T06:42:32;22.50;57.50
74153;DHT22;62505;46.070;14.492;2024-01-10T06:45:01;22.40;57.30
74153;DHT22;62505;46.070;14.492;2024-01-10T06:47:28;22.50;57.10
74153;DHT22;62505;46.070;14.492;2024-01-10T06:49:55;22.50;57.10
74153;DHT22;62505;46.070;14.492;2024-01-10T06:52:22;22.40;57.00
74153;DHT22;62505;46.070;14.492;2024-01-10T06:54:49;22.40;56.90
74153;DHT22;62505;46.070;14.492;2024-01-10T06:57:16;22.40;56.90
74153;DHT22;62505;46.070;14.492;2024-01-10T06:59:43;22.40;56.90
74153;DHT22;62505;46.070;14.492;2024-01-10T07:02:12;22.40;56.80
74153;DHT22;62505;46.070;14.492;2024-01-10T07:04:39;22.40;56.90
74153;DHT22;62505;46.070;14.492;2024-01-10T07:07:06;22.40;56.90
74153;DHT22;62505;46.070;14.492;2024-01-10T07:09:34;22.40;57.00
74153;DHT22;62505;46.070;14.492;2024-01-10T07:12:01;22.40;57.00
74153;DHT22;62505;46.070;14.492;2024-01-10T07:14:29;22.40;57.10
74153;DHT22;62505;46.070;14.492;2024-01-10T07:16:56;22.30;57.00
74153;DHT22;62505;46.070;14.492;2024-01-10T07:19:25;22.30;57.00
74153;DHT22;62505;46.070;14.492;2024-01-10T07:21:52;22.30;57.00
74153;DHT22;62505;46.070;14.492;2024-01-10T07:24:19;22.30;57.10
74153;DHT22;62505;46.070;14.492;2024-01-10T07:26:46;22.30;57.20
74153;DHT22;62505;46.070;14.492;2024-01-10T07:29:13;22.30;57.10
74153;DHT22;62505;46.070;14.492;2024-01-10T07:31:40;22.30;57.20
74153;DHT22;62505;46.070;14.492;2024-01-10T07:34:07;22.30;57.10
74153;DHT22;62505;46.070;14.492;2024-01-10T07:36:41;22.30;57.10
74153;DHT22;62505;46.070;14.492;2024-01-10T07:39:09;22.30;57.10
74153;DHT22;62505;46.070;14.492;2024-01-10T07:41:36;22.40;57.20
74153;DHT22;62505;46.070;14.492;2024-01-10T07:44:03;22.40;57.10
74153;DHT22;62505;46.070;14.492;2024-01-10T07:46:30;22.40;57.20
74153;DHT22;62505;46.070;14.492;2024-01-10T07:48:57;22.40;57.20
74153;DHT22;62505;46.070;14.492;2024-01-10T07:51:26;22.40;57.30
74153;DHT22;62505;46.070;14.492;2024-01-10T07:53:54;22.40;57.20
74153;DHT22;62505;46.070;14.492;2024-01-10T07:56:21;22.40;57.30
74153;DHT22;62505;46.070;14.492;2024-01-10T07:58:48;22.30;57.30
74153;DHT22;62505;46.070;14.492;2024-01-10T08:01:17;22.30;57.30
74153;DHT22;62505;46.070;14.492;2024-01-10T08:03:44;22.30;57.40
74153;DHT22;62505;46.070;14.492;2024-01-10T08:06:11;22.30;57.40
74153;DHT22;62505;46.070;14.492;2024-01-10T08:08:39;22.30;57.40
74153;DHT22;62505;46.070;14.492;2024-01-10T08:11:08;22.30;57.50
74153;DHT22;62505;46.070;14.492;2024-01-10T08:13:35;22.30;57.50
74153;DHT22;62505;46.070;14.492;2024-01-10T08:16:02;22.30;57.60
74153;DHT22;62505;46.070;14.492;2024-01-10T08:18:30;22.30;57.60
74153;DHT22;62505;46.070;14.492;2024-01-10T08:20:57;22.30;57.60
74153;DHT22;62505;46.070;14.492;2024-01-10T08:23:24;22.30;57.70
74153;DHT22;62505;46.070;14.492;2024-01-10T08:25:51;22.30;57.80
74153;DHT22;62505;46.070;14.492;2024-01-10T08:28:19;22.30;57.70
74153;DHT22;62505;46.070;14.492;2024-01-10T08:30:46;22.30;57.70
74153;DHT22;62505;46.070;14.492;2024-01-10T08:33:13;22.30;57.80
74153;DHT22;62505;46.070;14.492;2024-01-10T08:35:40;22.30;57.70
74153;DHT22;62505;46.070;14.492;2024-01-10T08:38:08;22.30;57.80
74153;DHT22;62505;46.070;14.492;2024-01-10T08:40:35;22.40;57.80
74153;DHT22;62505;46.070;14.492;2024-01-10T08:43:03;22.40;57.80
74153;DHT22;62505;46.070;14.492;2024-01-10T08:45:31;22.40;57.80
74153;DHT22;62505;46.070;14.492;2024-01-10T08:47:58;22.40;57.70
74153;DHT22;62505;46.070;14.492;2024-01-10T08:50:25;22.30;57.80
74153;DHT22;62505;46.070;14.492;2024-01-10T08:52:52;22.30;57.80
74153;DHT22;62505;46.070;14.492;2024-01-10T08:55:19;22.30;57.80
74153;DHT22;62505;46.070;14.492;2024-01-10T08:57:46;22.30;57.80
74153;DHT22;62505;46.070;14.492;2024-01-10T09:00:15;22.30;57.80
74153;DHT22;62505;46.070;14.492;2024-01-10T09:02:46;22.30;57.90
74153;DHT22;62505;46.070;14.492;2024-01-10T09:05:14;22.30;57.90
74153;DHT22;62505;46.070;14.492;2024-01-10T09:07:41;22.30;57.90
74153;DHT22;62505;46.070;14.492;2024-01-10T09:10:08;22.30;58.00
74153;DHT22;62505;46.070;14.492;2024-01-10T09:12:35;22.30;58.00
74153;DHT22;62505;46.070;14.492;2024-01-10T09:15:02;22.30;58.00
74153;DHT22;62505;46.070;14.492;2024-01-10T09:17:29;22.30;58.10
74153;DHT22;62505;46.070;14.492;2024-01-10T09:19:58;22.30;58.10
74153;DHT22;62505;46.070;14.492;2024-01-10T09:22:24;22.30;58.10
74153;DHT22;62505;46.070;14.492;2024-01-10T09:24:51;22.30;58.10
74153;DHT22;62505;46.070;14.492;2024-01-10T09:27:18;22.30;58.20
74153;DHT22;62505;46.070;14.492;2024-01-10T09:29:45;22.30;58.10
74153;DHT22;62505;46.070;14.492;2024-01-10T09:32:15;22.30;58.10
74153;DHT22;62505;46.070;14.492;2024-01-10T09:34:42;22.30;58.10
74153;DHT22;62505;46.070;14.492;2024-01-10T09:37:11;22.30;58.10
74153;DHT22;62505;46.070;14.492;2024-01-10T09:39:38;22.30;58.10
74153;DHT22;62505;46.070;14.492;2024-01-10T09:42:05;22.40;58.10
74153;DHT22;62505;46.070;14.492;2024-01-10T09:44:32;22.40;58.10
74153;DHT22;62505;46.070;14.492;2024-01-10T09:47:01;22.40;58.10
74153;DHT22;62505;46.070;14.492;2024-01-10T09:49:28;22.40;58.10
74153;DHT22;62505;46.070;14.492;2024-01-10T09:51:58;22.40;58.10
74153;DHT22;62505;46.070;14.492;2024-01-10T09:54:29;22.30;58.10
74153;DHT22;62505;46.070;14.492;2024-01-10T09:56:56;22.30;58.10
74153;DHT22;62505;46.070;14.492;2024-01-10T09:59:24;22.30;58.20
74153;DHT22;62505;46.070;14.492;2024-01-10T10:01:52;22.30;58.20
74153;DHT22;62505;46.070;14.492;2024-01-10T10:04:20;22.30;58.20
74153;DHT22;62505;46.070;14.492;2024-01-10T10:06:58;22.30;58.20
74153;DHT22;62505;46.070;14.492;2024-01-10T10:09:28;22.30;58.20
74153;DHT22;62505;46.070;14.492;2024-01-10T10:11:56;22.30;58.20
74153;DHT22;62505;46.070;14.492;2024-01-10T10:14:25;22.30;58.30
74153;DHT22;62505;46.070;14.492;2024-01-10T10:16:54;22.30;58.40
74153;DHT22;62505;46.070;14.492;2024-01-10T10:19:25;22.30;58.40
74153;DHT22;62505;46.070;14.492;2024-01-10T10:21:52;22.30;58.40
74153;DHT22;62505;46.070;14.492;2024-01-10T10:24:19;22.30;58.40
74153;DHT22;62505;46.070;14.492;2024-01-10T10:26:48;22.30;58.50
74153;DHT22;62505;46.070;14.492;2024-01-10T10:29:17;22.30;58.40
74153;DHT22;62505;46.070;14.492;2024-01-10T10:31:47;22.30;58.30
74153;DHT22;62505;46.070;14.492;2024-01-10T10:34:21;22.30;58.30
74153;DHT22;62505;46.070;14.492;2024-01-10T10:36:48;22.40;58.40
74153;DHT22;62505;46.070;14.492;2024-01-10T10:39:16;22.30;58.30
74153;DHT22;62505;46.070;14.492;2024-01-10T10:41:43;22.40;58.30
74153;DHT22;62505;46.070;14.492;2024-01-10T10:44:12;22.40;58.30
74153;DHT22;62505;46.070;14.492;2024-01-10T10:46:42;22.30;58.20
74153;DHT22;62505;46.070;14.492;2024-01-10T10:49:11;22.30;58.30
74153;DHT22;62505;46.070;14.492;2024-01-10T10:51:39;22.40;58.40
74153;DHT22;62505;46.070;14.492;2024-01-10T10:54:07;22.40;58.40
74153;DHT22;62505;46.070;14.492;2024-01-10T10:56:36;22.40;58.40
74153;DHT22;62505;46.070;14.492;2024-01-10T10:59:05;22.30;58.40
74153;DHT22;62505;46.070;14.492;2024-01-10T11:01:33;22.30;58.30
74153;DHT22;62505;46.070;14.492;2024-01-10T11:04:01;22.30;58.40
74153;DHT22;62505;46.070;14.492;2024-01-10T11:06:29;22.30;58.40
74153;DHT22;62505;46.070;14.492;2024-01-10T11:09:00;22.30;58.40
74153;DHT22;62505;46.070;14.492;2024-01-10T11:11:38;22.30;58.50
74153;DHT22;62505;46.070;14.492;2024-01-10T11:14:18;22.30;58.50
74153;DHT22;62505;46.070;14.492;2024-01-10T11:17:24;22.30;58.50
74153;DHT22;62505;46.070;14.492;2024-01-10T11:20:17;22.30;58.50
74153;DHT22;62505;46.070;14.492;2024-01-10T11:23:02;22.30;58.50
74153;DHT22;62505;46.070;14.492;2024-01-10T11:25:31;22.30;58.50
74153;DHT22;62505;46.070;14.492;2024-01-10T11:28:02;22.30;58.50
74153;DHT22;62505;46.070;14.492;2024-01-10T11:30:33;22.30;58.50
74153;DHT22;62505;46.070;14.492;2024-01-10T11:33:18;22.30;58.50
74153;DHT22;62505;46.070;14.492;2024-01-10T11:36:06;22.30;58.50
74153;DHT22;62505;46.070;14.492;2024-01-10T11:38:39;22.30;58.50
74153;DHT22;62505;46.070;14.492;2024-01-10T11:41:06;22.30;58.50
74153;DHT22;62505;46.070;14.492;2024-01-10T11:43:34;22.30;58.50
74153;DHT22;62505;46.070;14.492;2024-01-10T11:46:01;22.40;58.50
74153;DHT22;62505;46.070;14.492;2024-01-10T11:48:32;22.40;58.50
74153;DHT22;62505;46.070;14.492;2024-01-10T11:50:59;22.40;58.50
74153;DHT22;62505;46.070;14.492;2024-01-10T11:53:43;22.40;58.50
74153;DHT22;62505;46.070;14.492;2024-01-10T11:56:12;22.30;58.50
74153;DHT22;62505;46.070;14.492;2024-01-10T11:58:55;22.30;58.50
74153;DHT22;62505;46.070;14.492;2024-01-10T12:01:22;22.30;58.50
74153;DHT22;62505;46.070;14.492;2024-01-10T12:03:52;22.30;58.50
74153;DHT22;62505;46.070;14.492;2024-01-10T12:06:21;22.30;58.50
74153;DHT22;62505;46.070;14.492;2024-01-10T12:08:48;22.30;58.50
74153;DHT22;62505;46.070;14.492;2024-01-10T12:11:15;22.30;58.60
74153;DHT22;62505;46.070;14.492;2024-01-10T12:13:43;22.30;58.50
74153;DHT22;62505;46.070;14.492;2024-01-10T12:16:11;22.30;58.50
74153;DHT22;62505;46.070;14.492;2024-01-10T12:18:39;22.30;58.50
74153;DHT22;62505;46.070;14.492;2024-01-10T12:21:08;22.30;58.60
74153;DHT22;62505;46.070;14.492;2024-01-10T12:23:36;22.40;58.70
74153;DHT22;62505;46.070;14.492;2024-01-10T12:26:05;22.30;58.60
74153;DHT22;62505;46.070;14.492;2024-01-10T12:28:34;22.30;58.60
74153;DHT22;62505;46.070;14.492;2024-01-10T12:31:01;22.30;58.60
74153;DHT22;62505;46.070;14.492;2024-01-10T12:33:28;22.30;58.60
74153;DHT22;62505;46.070;14.492;2024-01-10T12:36:06;22.30;58.60
74153;DHT22;62505;46.070;14.492;2024-01-10T12:38:34;22.30;58.70
74153;DHT22;62505;46.070;14.492;2024-01-10T12:41:01;22.30;58.60
74153;DHT22;62505;46.070;14.492;2024-01-10T12:43:30;22.30;58.70
74153;DHT22;62505;46.070;14.492;2024-01-10T12:46:04;22.30;58.60
74153;DHT22;62505;46.070;14.492;2024-01-10T12:48:31;22.40;58.60
74153;DHT22;62505;46.070;14.492;2024-01-10T12:50:59;22.30;58.50
74153;DHT22;62505;46.070;14.492;2024-01-10T12:53:28;22.40;58.60
74153;DHT22;62505;46.070;14.492;2024-01-10T12:55:57;22.30;58.50
74153;DHT22;62505;46.070;14.492;2024-01-10T12:58:24;22.40;58.60
74153;DHT22;62505;46.070;14.492;2024-01-10T13:00:51;22.30;58.60
74153;DHT22;62505;46.070;14.492;2024-01-10T13:03:18;22.30;58.60
74153;DHT22;62505;46.070;14.492;2024-01-10T13:05:45;22.40;58.60
74153;DHT22;62505;46.070;14.492;2024-01-10T13:08:12;22.30;58.60
74153;DHT22;62505;46.070;14.492;2024-01-10T13:10:39;22.30;58.60
74153;DHT22;62505;46.070;14.492;2024-01-10T13:13:08;22.30;58.60
74153;DHT22;62505;46.070;14.492;2024-01-10T13:15:35;22.30;58.60
74153;DHT22;62505;46.070;14.492;2024-01-10T13:18:02;22.30;58.70
74153;DHT22;62505;46.070;14.492;2024-01-10T13:20:29;22.30;58.60
74153;DHT22;62505;46.070;14.492;2024-01-10T13:22:56;22.30;58.60
74153;DHT22;62505;46.070;14.492;2024-01-10T13:25:23;22.30;59.30
74153;DHT22;62505;46.070;14.492;2024-01-10T13:27:50;22.30;58.60
74153;DHT22;62505;46.070;14.492;2024-01-10T13:30:19;22.30;58.70
74153;DHT22;62505;46.070;14.492;2024-01-10T13:32:46;22.30;58.70
74153;DHT22;62505;46.070;14.492;2024-01-10T13:35:13;22.30;58.70
74153;DHT22;62505;46.070;14.492;2024-01-10T13:37:42;22.30;58.70
74153;DHT22;62505;46.070;14.492;2024-01-10T13:40:09;22.30;58.70
74153;DHT22;62505;46.070;14.492;2024-01-10T13:42:38;22.30;58.70
74153;DHT22;62505;46.070;14.492;2024-01-10T13:45:05;22.30;58.70
74153;DHT22;62505;46.070;14.492;2024-01-10T13:47:34;22.30;58.70
74153;DHT22;62505;46.070;14.492;2024-01-10T13:50:01;22.30;58.70
74153;DHT22;62505;46.070;14.492;2024-01-10T13:52:29;22.30;58.70
74153;DHT22;62505;46.070;14.492;2024-01-10T13:54:57;22.30;58.60
74153;DHT22;62505;46.070;14.492;2024-01-10T13:57:24;22.40;58.70
74153;DHT22;62505;46.070;14.492;2024-01-10T13:59:51;22.40;58.70
74153;DHT22;62505;46.070;14.492;2024-01-10T14:02:21;22.30;58.60
74153;DHT22;62505;46.070;14.492;2024-01-10T14:04:49;22.30;58.60
74153;DHT22;62505;46.070;14.492;2024-01-10T14:07:17;22.30;58.60
74153;DHT22;62505;46.070;14.492;2024-01-10T14:09:43;22.30;58.60
74153;DHT22;62505;46.070;14.492;2024-01-10T14:12:11;22.30;58.70
74153;DHT22;62505;46.070;14.492;2024-01-10T14:14:38;22.30;58.60
74153;DHT22;62505;46.070;14.492;2024-01-10T14:17:05;22.30;58.60
74153;DHT22;62505;46.070;14.492;2024-01-10T14:19:32;22.30;58.60
74153;DHT22;62505;46.070;14.492;2024-01-10T14:22:01;22.30;58.70
74153;DHT22;62505;46.070;14.492;2024-01-10T14:24:28;22.30;58.70
74153;DHT22;62505;46.070;14.492;2024-01-10T14:26:55;22.30;58.70
74153;DHT22;62505;46.070;14.492;2024-01-10T14:29:22;22.30;58.70
74153;DHT22;62505;46.070;14.492;2024-01-10T14:31:49;22.30;58.70
74153;DHT22;62505;46.070;14.492;2024-01-10T14:34:16;22.30;58.70
74153;DHT22;62505;46.070;14.492;2024-01-10T14:36:43;22.30;58.70
74153;DHT22;62505;46.070;14.492;2024-01-10T14:39:11;22.30;58.70
74153;DHT22;62505;46.070;14.492;2024-01-10T14:41:38;22.30;58.70
74153;DHT22;62505;46.070;14.492;2024-01-10T14:44:06;22.30;58.70
74153;DHT22;62505;46.070;14.492;2024-01-10T14:46:33;22.30;58.70
74153;DHT22;62505;46.070;14.492;2024-01-10T14:49:00;22.30;58.70
74153;DHT22;62505;46.070;14.492;2024-01-10T14:51:27;22.30;58.70
74153;DHT22;62505;46.070;14.492;2024-01-10T14:53:54;22.30;58.70
74153;DHT22;62505;46.070;14.492;2024-01-10T14:56:22;22.30;58.70
74153;DHT22;62505;46.070;14.492;2024-01-10T14:58:49;22.30;58.70
74153;DHT22;62505;46.070;14.492;2024-01-10T15:01:17;22.30;58.60
74153;DHT22;62505;46.070;14.492;2024-01-10T15:03:45;22.30;58.60
74153;DHT22;62505;46.070;14.492;2024-01-10T15:06:12;22.30;58.60
74153;DHT22;62505;46.070;14.492;2024-01-10T15:08:40;22.40;58.70
74153;DHT22;62505;46.070;14.492;2024-01-10T15:11:07;22.30;58.60
74153;DHT22;62505;46.070;14.492;2024-01-10T15:13:39;22.30;58.60
74153;DHT22;62505;46.070;14.492;2024-01-10T15:16:07;22.40;58.70
74153;DHT22;62505;46.070;14.492;2024-01-10T15:18:34;22.30;58.70
74153;DHT22;62505;46.070;14.492;2024-01-10T15:21:01;22.30;58.70